Time;durP1;ratioP1;P1;durP2;ratioP2;P2;SDS_P1;SDS_P2;PMS_P1;PMS_P2;Temp;Humidity;BMP_temperature;BMP_pressure;BME280_temperature;BME280_humidity;BME280_pressure;Samples;Min_cycle;Max_cycle;Signal;HPM_P1;HPM_P2
2024/01/15 00:02:06;;;;;;;7.07;1.20;;;;;;;7.16;60.63;100523.75;4994005;28;20030;-47
2024/01/15 00:04:35;;;;;;;16.80;1.60;;;;;;;7.38;59.30;100526.81;4993949;28;20417;-44
2024/01/15 00:07:01;;;;;;;7.28;1.23;;;;;;;7.16;59.22;100526.34;4993415;28;20030;-43
2024/01/15 00:09:27;;;;;;;9.15;1.33;;;;;;;7.14;58.88;100517.66;4994010;28;20116;-46
2024/01/15 00:11:53;;;;;;;13.13;1.95;;;;;;;7.27;58.17;100517.06;4992937;28;20145;-45
2024/01/15 00:14:20;;;;;;;10.05;1.40;;;;;;;7.42;57.86;100508.75;4993258;28;20034;-47
2024/01/15 00:16:45;;;;;;;11.02;1.40;;;;;;;7.41;57.13;100507.00;4992770;28;20077;-46
2024/01/15 00:19:10;;;;;;;10.95;1.42;;;;;;;7.52;56.45;100487.31;4992497;28;20065;-44
2024/01/15 00:21:36;;;;;;;5.50;1.10;;;;;;;7.40;56.77;100488.78;4992755;28;20038;-46
2024/01/15 00:24:01;;;;;;;10.18;1.20;;;;;;;7.60;56.41;100490.94;4992408;28;20038;-45
2024/01/15 00:26:27;;;;;;;12.13;1.50;;;;;;;7.57;56.43;100483.09;4992225;28;20046;-50
2024/01/15 00:28:52;;;;;;;9.25;1.27;;;;;;;7.48;57.04;100490.72;4992877;28;20469;-44
2024/01/15 00:31:17;;;;;;;11.45;1.40;;;;;;;7.41;58.02;100486.25;4993151;28;20038;-46
2024/01/15 00:33:43;;;;;;;10.15;1.30;;;;;;;7.40;59.24;100481.91;4992758;28;20030;-46
2024/01/15 00:36:08;;;;;;;15.55;1.60;;;;;;;7.28;60.26;100481.66;4990911;28;20066;-44
2024/01/15 00:38:34;;;;;;;12.00;2.03;;;;;;;7.31;60.65;100479.13;4992664;28;20030;-45
2024/01/15 00:40:59;;;;;;;15.68;1.85;;;;;;;7.13;60.77;100471.84;4992256;28;20048;-48
2024/01/15 00:43:25;;;;;;;13.15;1.20;;;;;;;6.95;60.48;100471.47;4992833;28;20047;-46
2024/01/15 00:45:50;;;;;;;6.97;1.20;;;;;;;6.92;60.54;100474.84;4993092;28;20465;-46
2024/01/15 00:48:15;;;;;;;7.85;1.20;;;;;;;6.71;60.18;100470.94;4995036;28;20450;-49
2024/01/15 00:50:41;;;;;;;9.10;1.00;;;;;;;6.90;59.76;100476.53;4994864;28;20452;-45
2024/01/15 00:53:06;;;;;;;5.93;1.10;;;;;;;6.82;59.86;100475.50;4992897;28;20038;-46
2024/01/15 00:55:31;;;;;;;12.32;1.33;;;;;;;7.07;59.56;100470.84;4992479;28;20511;-43
2024/01/15 00:57:57;;;;;;;9.27;1.08;;;;;;;7.24;58.70;100464.28;4991543;28;20086;-44
2024/01/15 01:00:22;;;;;;;7.53;1.30;;;;;;;7.18;59.07;100459.88;4992876;28;20045;-44
2024/01/15 01:02:48;;;;;;;11.88;1.90;;;;;;;6.93;59.21;100455.88;4992243;28;20517;-48
2024/01/15 01:05:13;;;;;;;5.93;1.05;;;;;;;6.85;60.16;100464.31;4991405;28;20700;-48
2024/01/15 01:07:38;;;;;;;9.48;1.10;;;;;;;7.22;59.72;100447.81;4992192;28;20050;-46
2024/01/15 01:10:04;;;;;;;10.95;1.30;;;;;;;6.77;61.01;100460.72;4991678;28;20038;-46
2024/01/15 01:12:30;;;;;;;10.52;1.20;;;;;;;6.95;60.53;100457.63;4992186;28;20038;-46
2024/01/15 01:14:56;;;;;;;8.23;1.23;;;;;;;6.83;60.92;100461.69;4990963;28;20030;-46
2024/01/15 01:17:22;;;;;;;7.05;1.00;;;;;;;6.84;61.57;100455.66;4991723;28;20038;-45
2024/01/15 01:19:47;;;;;;;7.97;1.10;;;;;;;6.92;62.60;100458.44;4991607;28;20041;-49
2024/01/15 01:22:12;;;;;;;8.57;1.25;;;;;;;6.90;63.41;100460.97;4991787;28;20067;-44
2024/01/15 01:24:38;;;;;;;9.68;1.40;;;;;;;7.24;62.15;100459.09;4990421;28;20066;-45
2024/01/15 01:27:03;;;;;;;6.53;1.33;;;;;;;6.99;64.19;100451.66;4991150;28;20042;-49
2024/01/15 01:29:28;;;;;;;6.78;1.08;;;;;;;7.11;64.29;100445.03;4991563;28;20088;-44
2024/01/15 01:31:54;;;;;;;5.72;1.00;;;;;;;6.68;65.45;100451.00;4991292;28;20098;-46
2024/01/15 01:34:19;;;;;;;5.03;0.73;;;;;;;6.60;66.07;100447.34;4991415;28;20129;-45
2024/01/15 01:36:45;;;;;;;5.50;1.08;;;;;;;6.67;65.07;100444.06;4991857;28;20101;-45
2024/01/15 01:39:10;;;;;;;5.38;0.93;;;;;;;6.53;65.37;100448.94;4991106;28;20042;-45
2024/01/15 01:41:36;;;;;;;7.60;1.00;;;;;;;6.40;65.24;100449.50;4990130;28;20038;-49
2024/01/15 01:44:01;;;;;;;8.07;1.25;;;;;;;6.50;65.10;100442.81;4989215;28;20053;-45
2024/01/15 01:46:27;;;;;;;9.80;1.10;;;;;;;6.38;65.17;100445.13;4990871;28;20030;-47
2024/01/15 01:48:55;;;;;;;7.65;1.15;;;;;;;6.66;64.65;100450.09;4990491;28;20050;-45
2024/01/15 01:51:21;;;;;;;9.45;1.25;;;;;;;6.75;64.51;100439.94;4991293;28;20035;-48
2024/01/15 01:53:47;;;;;;;9.52;1.00;;;;;;;6.14;67.64;100440.25;4991480;28;20038;-44
2024/01/15 01:56:14;;;;;;;5.35;0.90;;;;;;;6.65;66.43;100444.91;4990132;28;20132;-44
2024/01/15 01:58:40;;;;;;;5.13;1.10;;;;;;;6.64;66.66;100444.03;4991818;28;20092;-45
2024/01/15 02:01:06;;;;;;;8.15;0.82;;;;;;;6.76;65.41;100438.22;4989787;28;20560;-45
2024/01/15 02:03:31;;;;;;;5.88;0.98;;;;;;;6.72;64.97;100445.03;4990794;28;20042;-44
2024/01/15 02:05:58;;;;;;;12.48;0.82;;;;;;;6.64;65.30;100443.16;4989847;28;20043;-47
2024/01/15 02:08:23;;;;;;;7.82;0.88;;;;;;;6.58;64.68;100449.06;4990906;28;20423;-46
2024/01/15 02:10:49;;;;;;;2.90;0.60;;;;;;;6.68;64.46;100443.22;4991331;28;20133;-45
2024/01/15 02:13:14;;;;;;;6.35;0.95;;;;;;;6.45;64.27;100440.13;4991249;28;20050;-45
2024/01/15 02:15:40;;;;;;;4.20;0.77;;;;;;;6.36;63.70;100436.44;4991074;28;20121;-45
2024/01/15 02:18:09;;;;;;;3.80;0.77;;;;;;;6.42;64.00;100432.28;4991145;28;20109;-47
2024/01/15 02:20:35;;;;;;;4.57;0.90;;;;;;;6.50;63.73;100422.97;4990826;28;20100;-45
2024/01/15 02:23:12;;;;;;;6.82;0.75;;;;;;;6.46;63.55;100426.31;4990274;28;20038;-44
2024/01/15 02:25:45;;;;;;;4.95;0.60;;;;;;;6.69;62.67;100437.22;4990595;28;20046;-48
2024/01/15 02:28:16;;;;;;;2.42;0.65;;;;;;;6.55;62.62;100423.09;4990299;28;20057;-45
2024/01/15 02:30:42;;;;;;;2.90;0.68;;;;;;;6.40;62.59;100428.78;4990828;28;20521;-46
2024/01/15 02:33:08;;;;;;;6.40;0.75;;;;;;;6.38;62.76;100424.41;4990753;28;20034;-49
2024/01/15 02:35:36;;;;;;;7.07;0.70;;;;;;;6.56;62.48;100426.56;4990568;28;20038;-47
2024/01/15 02:38:02;;;;;;;6.03;0.80;;;;;;;6.73;61.89;100423.47;4990626;28;20072;-43
2024/01/15 02:40:27;;;;;;;6.05;1.00;;;;;;;6.63;63.27;100418.06;4990818;28;20129;-44
2024/01/15 02:42:53;;;;;;;5.47;0.93;;;;;;;6.60;64.11;100413.69;4990422;28;20126;-46
2024/01/15 02:45:19;;;;;;;8.18;1.10;;;;;;;6.68;64.15;100419.94;4990312;28;20042;-45
2024/01/15 02:47:44;;;;;;;5.18;0.80;;;;;;;6.84;64.30;100411.63;4990553;28;20505;-49
2024/01/15 02:50:10;;;;;;;6.50;1.20;;;;;;;6.24;65.64;100418.03;4990531;28;20080;-46
2024/01/15 02:52:35;;;;;;;5.78;0.90;;;;;;;6.74;64.71;100411.41;4990425;28;20046;-47
2024/01/15 02:55:00;;;;;;;7.35;0.88;;;;;;;6.67;64.24;100409.53;4990386;28;20042;-46
2024/01/15 02:57:26;;;;;;;7.20;0.70;;;;;;;6.84;64.46;100422.00;4991311;28;20532;-44
2024/01/15 02:59:51;;;;;;;5.60;0.98;;;;;;;7.14;62.64;100413.97;4992203;28;20073;-44
2024/01/15 03:02:16;;;;;;;3.90;0.70;;;;;;;6.72;65.36;100421.72;4992801;28;20034;-46
2024/01/15 03:04:45;;;;;;;5.50;1.00;;;;;;;6.62;67.66;100427.56;4990615;28;20034;-44
2024/01/15 03:07:10;;;;;;;6.47;1.00;;;;;;;6.77;67.47;100421.84;4989686;28;20045;-45
2024/01/15 03:09:35;;;;;;;9.02;0.90;;;;;;;7.13;66.41;100416.53;4988641;28;20822;-45
2024/01/15 03:12:01;;;;;;;8.50;0.90;;;;;;;6.95;66.82;100419.66;4990544;28;20420;-46
2024/01/15 03:14:26;;;;;;;6.20;1.00;;;;;;;6.94;67.44;100407.53;4990133;28;20266;-42
2024/01/15 03:16:52;;;;;;;5.20;0.90;;;;;;;6.89;68.55;100417.78;4992478;28;20476;-45
2024/01/15 03:19:18;;;;;;;6.03;1.30;;;;;;;6.68;69.73;100406.09;4994634;28;20040;-46
2024/01/15 03:21:43;;;;;;;4.50;0.80;;;;;;;6.69;70.10;100405.25;4993611;28;20130;-45
2024/01/15 03:24:08;;;;;;;7.57;0.93;;;;;;;7.04;69.43;100393.03;4993898;28;20563;-46
2024/01/15 03:26:34;;;;;;;8.95;1.38;;;;;;;6.90;69.48;100397.91;4992784;28;20080;-45
2024/01/15 03:28:59;;;;;;;11.57;1.27;;;;;;;6.42;70.83;100426.22;4993179;28;20044;-45
2024/01/15 03:31:24;;;;;;;4.25;0.80;;;;;;;6.19;71.93;100430.88;4992613;28;20049;-46
2024/01/15 03:33:49;;;;;;;3.13;0.68;;;;;;;6.53;69.99;100417.84;4993273;28;20037;-44
2024/01/15 03:36:15;;;;;;;3.58;0.65;;;;;;;6.51;68.83;100409.22;4992967;28;20125;-45
2024/01/15 03:38:43;;;;;;;5.93;0.68;;;;;;;6.53;68.51;100399.72;4993699;28;20045;-45
2024/01/15 03:41:08;;;;;;;5.88;0.70;;;;;;;6.40;68.60;100404.63;4992808;28;20049;-49
2024/01/15 03:43:34;;;;;;;3.65;0.50;;;;;;;6.40;68.29;100399.44;4993995;28;20035;-47
2024/01/15 03:45:59;;;;;;;4.60;0.77;;;;;;;6.71;66.58;100386.28;4992613;28;20030;-49
2024/01/15 03:48:24;;;;;;;1.77;0.57;;;;;;;6.15;68.22;100384.19;4993414;28;20038;-46
2024/01/15 03:50:50;;;;;;;5.47;0.63;;;;;;;6.48;66.60;100392.69;4993308;28;20057;-45
2024/01/15 03:53:15;;;;;;;2.47;0.60;;;;;;;6.47;66.10;100386.66;4992870;28;20042;-45
2024/01/15 03:55:41;;;;;;;3.25;0.60;;;;;;;6.44;66.49;100386.59;4992848;28;20034;-44
2024/01/15 03:58:07;;;;;;;2.03;0.40;;;;;;;6.38;66.85;100389.06;4992683;28;20164;-44
2024/01/15 04:00:32;;;;;;;2.65;0.60;;;;;;;6.14;68.13;100395.38;4993138;28;20070;-50
2024/01/15 04:02:58;;;;;;;5.88;0.80;;;;;;;6.25;68.21;100380.97;4992576;28;20046;-44
2024/01/15 04:05:23;;;;;;;3.92;0.50;;;;;;;6.63;67.83;100376.63;4992463;28;20040;-46
2024/01/15 04:07:48;;;;;;;4.57;0.80;;;;;;;6.81;66.63;100375.31;4993168;28;20042;-46
2024/01/15 04:10:14;;;;;;;3.10;0.60;;;;;;;6.42;67.60;100372.72;4992942;28;20035;-46
2024/01/15 04:12:39;;;;;;;1.65;0.50;;;;;;;6.39;67.40;100371.81;4994600;28;20060;-43
2024/01/15 04:15:05;;;;;;;6.75;0.60;;;;;;;6.55;66.83;100373.00;4993260;28;20041;-45
2024/01/15 04:17:30;;;;;;;2.58;0.50;;;;;;;6.54;67.68;100374.72;4994768;28;20406;-46
2024/01/15 04:19:55;;;;;;;5.60;0.90;;;;;;;6.09;69.54;100375.44;4992506;28;20030;-44
2024/01/15 04:22:21;;;;;;;4.45;0.50;;;;;;;6.36;70.35;100359.66;4993761;28;20038;-46
2024/01/15 04:24:46;;;;;;;3.88;0.60;;;;;;;5.99;71.42;100364.84;4994613;28;20524;-44
2024/01/15 04:27:11;;;;;;;3.67;0.60;;;;;;;6.44;70.30;100360.72;4992455;28;20549;-44
2024/01/15 04:29:40;;;;;;;3.90;0.63;;;;;;;6.19;70.67;100365.28;4992851;28;20400;-49
2024/01/15 04:32:05;;;;;;;6.03;0.82;;;;;;;5.85;71.26;100374.84;4991363;28;20592;-46
2024/01/15 04:34:31;;;;;;;5.47;0.80;;;;;;;5.69;72.27;100378.75;4993301;28;20042;-46
2024/01/15 04:36:56;;;;;;;8.32;1.25;;;;;;;5.76;72.93;100384.06;4992838;28;20524;-44
2024/01/15 04:39:22;;;;;;;7.90;1.08;;;;;;;5.63;73.82;100394.09;4993362;28;20030;-44
2024/01/15 04:41:47;;;;;;;5.18;0.73;;;;;;;5.16;75.08;100398.03;4993302;28;20038;-47
2024/01/15 04:44:13;;;;;;;5.25;0.75;;;;;;;5.71;73.08;100378.78;4993885;28;20065;-44
2024/01/15 04:46:38;;;;;;;8.73;0.93;;;;;;;5.68;72.31;100368.34;4994473;28;20047;-44
2024/01/15 04:49:03;;;;;;;4.43;0.70;;;;;;;5.90;72.59;100357.75;4993844;28;20035;-43
2024/01/15 04:51:29;;;;;;;5.05;0.80;;;;;;;5.88;72.16;100361.13;4992778;28;20140;-45
2024/01/15 04:53:54;;;;;;;5.68;0.68;;;;;;;5.90;71.70;100357.75;4992633;28;20031;-44
2024/01/15 04:56:19;;;;;;;9.80;0.85;;;;;;;6.02;72.30;100355.44;4992926;28;20039;-46
2024/01/15 04:58:45;;;;;;;6.20;0.85;;;;;;;6.04;72.15;100338.22;4993027;28;20048;-44
2024/01/15 05:01:10;;;;;;;4.90;1.27;;;;;;;6.04;72.05;100342.50;4991731;28;20465;-44
2024/01/15 05:03:36;;;;;;;7.00;0.80;;;;;;;5.97;71.82;100341.53;4992072;28;20413;-49
2024/01/15 05:06:01;;;;;;;6.40;0.80;;;;;;;5.95;71.12;100345.78;4990992;28;20058;-46
2024/01/15 05:08:27;;;;;;;6.95;0.82;;;;;;;6.11;71.48;100341.81;4991729;28;20045;-45
2024/01/15 05:10:52;;;;;;;2.80;0.55;;;;;;;6.00;71.75;100341.59;4991362;28;20034;-47
2024/01/15 05:13:17;;;;;;;5.75;0.80;;;;;;;6.06;71.71;100335.69;4992068;28;20042;-45
2024/01/15 05:15:43;;;;;;;6.55;0.80;;;;;;;6.15;71.40;100337.59;4991482;28;20035;-44
2024/01/15 05:18:08;;;;;;;9.90;0.95;;;;;;;6.04;72.73;100342.50;4991258;28;20441;-43
2024/01/15 05:20:33;;;;;;;5.65;1.00;;;;;;;6.07;72.18;100352.94;4992414;28;20039;-44
2024/01/15 05:22:59;;;;;;;1.88;0.82;;;;;;;6.22;72.08;100353.28;4993191;28;20045;-47
2024/01/15 05:25:24;;;;;;;6.43;1.05;;;;;;;5.95;72.34;100350.09;4993364;28;20066;-45
2024/01/15 05:27:49;;;;;;;4.47;0.60;;;;;;;6.07;71.75;100342.59;4993502;28;20035;-45
2024/01/15 05:30:16;;;;;;;4.32;1.42;;;;;;;6.04;72.55;100347.69;4992706;28;20065;-47
2024/01/15 05:32:41;;;;;;;3.38;0.90;;;;;;;5.84;73.46;100351.50;4991871;28;20042;-46
2024/01/15 05:35:07;;;;;;;6.50;1.05;;;;;;;5.69;73.75;100345.13;4991035;28;20039;-44
2024/01/15 05:37:32;;;;;;;10.00;1.05;;;;;;;5.93;74.73;100339.69;4991803;28;20042;-44
2024/01/15 05:39:58;;;;;;;7.45;1.27;;;;;;;6.06;73.55;100333.09;4989070;28;20057;-46
2024/01/15 05:42:23;;;;;;;4.00;1.00;;;;;;;5.83;75.25;100331.66;4991983;28;20038;-46
2024/01/15 05:44:48;;;;;;;10.60;1.10;;;;;;;6.09;74.05;100326.28;4991336;28;20073;-47
2024/01/15 05:47:14;;;;;;;6.30;1.30;;;;;;;6.06;74.29;100331.38;4991216;28;20493;-49
2024/01/15 05:49:39;;;;;;;9.65;1.33;;;;;;;5.77;75.72;100323.75;4991289;28;20128;-45
2024/01/15 05:52:04;;;;;;;10.30;1.48;;;;;;;6.07;74.58;100317.59;4989733;28;20508;-47
2024/01/15 05:54:29;;;;;;;13.90;1.50;;;;;;;6.15;73.81;100322.97;4990863;28;20063;-44
2024/01/15 05:56:55;;;;;;;9.25;1.42;;;;;;;5.78;75.10;100321.19;4989848;28;20038;-44
2024/01/15 05:59:20;;;;;;;13.98;1.23;;;;;;;5.98;74.80;100316.50;4990710;28;20533;-51
2024/01/15 06:01:45;;;;;;;8.23;0.77;;;;;;;5.62;76.08;100316.47;4991664;28;20034;-46
2024/01/15 06:04:11;;;;;;;7.95;0.70;;;;;;;6.11;74.45;100308.19;4990609;28;20185;-45
2024/01/15 06:06:37;;;;;;;6.82;0.85;;;;;;;6.00;74.94;100309.66;4990925;28;20078;-44
2024/01/15 06:09:05;;;;;;;9.63;1.60;;;;;;;5.86;74.72;100318.78;4990477;28;20121;-49
2024/01/15 06:11:31;;;;;;;8.98;1.27;;;;;;;5.60;75.67;100334.56;4990854;28;20038;-48
2024/01/15 06:13:56;;;;;;;12.45;1.13;;;;;;;5.94;74.94;100330.22;4990856;28;20038;-44
2024/01/15 06:16:23;;;;;;;13.45;1.30;;;;;;;6.25;73.88;100343.00;4990634;28;20460;-45
2024/01/15 06:18:48;;;;;;;3.72;0.75;;;;;;;5.31;76.04;100356.19;4991329;28;20042;-45
2024/01/15 06:21:14;;;;;;;4.20;0.80;;;;;;;4.95;76.09;100374.19;4990934;28;20034;-45
2024/01/15 06:23:39;;;;;;;4.85;0.80;;;;;;;4.88;76.27;100359.34;4991751;28;20030;-45
2024/01/15 06:26:05;;;;;;;4.00;0.60;;;;;;;4.60;77.31;100367.13;4990533;28;20035;-48
2024/01/15 06:28:30;;;;;;;5.72;0.95;;;;;;;5.10;76.06;100345.31;4991807;28;20037;-45
2024/01/15 06:30:56;;;;;;;6.72;0.70;;;;;;;5.06;73.94;100326.25;4989889;28;20385;-46
2024/01/15 06:33:22;;;;;;;8.65;0.73;;;;;;;5.13;73.84;100333.34;4991823;28;20381;-46
2024/01/15 06:35:47;;;;;;;3.67;0.65;;;;;;;5.18;73.81;100323.16;4990867;28;20034;-46
2024/01/15 06:38:12;;;;;;;4.50;1.00;;;;;;;5.26;73.66;100319.91;4991151;28;20046;-45
2024/01/15 06:40:41;;;;;;;8.45;0.88;;;;;;;5.31;73.66;100313.13;4992004;28;20437;-43
2024/01/15 06:43:06;;;;;;;6.75;0.90;;;;;;;5.21;74.36;100324.09;4991730;28;20597;-45
2024/01/15 06:45:32;;;;;;;6.75;0.80;;;;;;;5.48;73.07;100325.63;4990296;28;20056;-43
2024/01/15 06:47:57;;;;;;;6.22;0.82;;;;;;;5.56;73.17;100319.78;4990186;28;20484;-44
2024/01/15 06:50:23;;;;;;;4.07;0.75;;;;;;;5.68;72.38;100324.38;4991467;28;20049;-50
2024/01/15 06:52:49;;;;;;;5.07;0.70;;;;;;;5.58;74.00;100325.88;4994787;28;20445;-44
2024/01/15 06:55:14;;;;;;;3.55;0.60;;;;;;;5.99;72.28;100329.47;4993143;28;20089;-45
2024/01/15 06:57:39;;;;;;;5.78;0.80;;;;;;;5.78;72.88;100341.91;4994039;28;20034;-44
2024/01/15 07:00:07;;;;;;;3.65;0.70;;;;;;;6.08;71.67;100350.41;4993523;28;20089;-47
2024/01/15 07:02:33;;;;;;;4.53;0.93;;;;;;;5.89;71.19;100353.41;4994504;28;20034;-47
2024/01/15 07:04:58;;;;;;;6.57;0.70;;;;;;;5.66;72.66;100346.78;4993117;28;20052;-43
2024/01/15 07:07:23;;;;;;;6.72;1.10;;;;;;;5.83;71.87;100340.28;4993632;28;20041;-43
2024/01/15 07:09:51;;;;;;;4.35;0.73;;;;;;;5.90;71.23;100331.00;4994235;28;20412;-42
2024/01/15 07:12:17;;;;;;;8.82;1.08;;;;;;;6.04;70.20;100329.56;4993889;28;20041;-44
2024/01/15 07:14:42;;;;;;;9.20;1.17;;;;;;;5.95;70.19;100321.63;4993406;28;20145;-43
2024/01/15 07:17:08;;;;;;;8.20;0.93;;;;;;;5.92;70.25;100313.78;4993781;28;20524;-45
2024/01/15 07:19:33;;;;;;;7.03;0.88;;;;;;;6.06;69.78;100296.84;4994261;28;20374;-43
2024/01/15 07:21:58;;;;;;;6.40;1.00;;;;;;;5.88;71.20;100299.03;4994332;28;20038;-44
2024/01/15 07:24:24;;;;;;;6.05;0.90;;;;;;;6.03;71.16;100300.28;4994051;28;20034;-48
2024/01/15 07:26:49;;;;;;;6.15;1.40;;;;;;;6.08;71.75;100308.13;4993964;28;20042;-44
2024/01/15 07:29:14;;;;;;;9.52;1.30;;;;;;;6.24;71.80;100297.25;4993345;28;20030;-46
2024/01/15 07:31:39;;;;;;;5.80;1.00;;;;;;;6.12;71.09;100304.75;4994289;28;20034;-46
2024/01/15 07:34:05;;;;;;;9.63;1.02;;;;;;;5.80;72.85;100298.81;4992202;28;20041;-46
2024/01/15 07:36:30;;;;;;;9.40;1.20;;;;;;;5.88;73.40;100304.22;4993849;28;20686;-48
2024/01/15 07:38:55;;;;;;;12.75;1.63;;;;;;;5.90;72.94;100300.81;4993061;28;20050;-44
2024/01/15 07:41:21;;;;;;;9.73;1.10;;;;;;;5.63;74.61;100306.19;4993722;28;20034;-47
2024/01/15 07:43:46;;;;;;;13.65;1.45;;;;;;;5.82;74.53;100304.91;4994136;28;20042;-44
2024/01/15 07:46:11;;;;;;;11.77;1.60;;;;;;;5.76;74.61;100315.09;4992727;28;20034;-46
2024/01/15 07:48:36;;;;;;;14.07;1.73;;;;;;;5.96;73.16;100302.69;4994245;28;20065;-44
2024/01/15 07:51:02;;;;;;;8.50;1.27;;;;;;;6.03;72.44;100299.41;4993706;28;20034;-46
2024/01/15 07:53:27;;;;;;;9.60;1.27;;;;;;;5.72;72.85;100309.00;4994347;28;20042;-46
2024/01/15 07:55:53;;;;;;;15.52;1.30;;;;;;;6.13;71.79;100311.69;4993167;28;20050;-47
2024/01/15 07:58:18;;;;;;;9.43;1.50;;;;;;;5.68;73.48;100327.84;4994350;28;20696;-45
2024/01/15 08:00:44;;;;;;;15.45;1.58;;;;;;;5.64;73.86;100328.63;4992970;28;20069;-46
2024/01/15 08:03:11;;;;;;;12.38;1.45;;;;;;;5.91;73.82;100332.75;4991980;28;20496;-49
2024/01/15 08:05:36;;;;;;;10.75;1.30;;;;;;;5.48;74.77;100323.94;4992870;28;20053;-44
2024/01/15 08:08:02;;;;;;;7.68;1.02;;;;;;;5.81;73.38;100325.56;4989134;28;20042;-46
2024/01/15 08:10:27;;;;;;;5.75;1.25;;;;;;;5.59;73.30;100332.81;4992799;28;20048;-46
2024/01/15 08:12:52;;;;;;;7.97;1.20;;;;;;;5.92;72.03;100319.81;4992284;28;20065;-46
2024/01/15 08:15:18;;;;;;;7.57;1.35;;;;;;;5.97;71.32;100327.72;4992345;28;20063;-47
2024/01/15 08:17:43;;;;;;;13.75;1.33;;;;;;;6.13;70.36;100323.75;4992992;28;20049;-46
2024/01/15 08:20:10;;;;;;;10.35;1.33;;;;;;;5.83;70.39;100331.66;4992500;28;20516;-46
2024/01/15 08:22:35;;;;;;;7.45;1.30;;;;;;;6.01;69.35;100335.56;4993111;28;20062;-46
2024/01/15 08:25:00;;;;;;;5.65;1.10;;;;;;;5.73;70.11;100335.75;4990920;28;20692;-49
2024/01/15 08:27:26;;;;;;;5.20;1.00;;;;;;;6.42;68.42;100333.91;4992838;28;20041;-46
2024/01/15 08:29:51;;;;;;;8.70;0.95;;;;;;;6.01;69.51;100326.94;4991423;28;20045;-47
2024/01/15 08:32:16;;;;;;;6.72;1.25;;;;;;;6.19;69.54;100324.75;4994573;28;20515;-45
2024/01/15 08:34:42;;;;;;;7.68;1.00;;;;;;;6.25;69.51;100330.06;4998107;28;20034;-45
2024/01/15 08:37:08;;;;;;;13.48;1.73;;;;;;;6.29;69.00;100325.81;4996791;28;20381;-43
2024/01/15 08:39:33;;;;;;;8.88;1.30;;;;;;;6.21;69.38;100325.69;4997662;28;20094;-45
2024/01/15 08:41:58;;;;;;;4.70;0.80;;;;;;;5.86;69.61;100327.41;4994731;28;20038;-46
2024/01/15 08:44:24;;;;;;;6.13;0.63;;;;;;;6.16;67.86;100327.25;4992836;28;20050;-44
2024/01/15 08:46:49;;;;;;;8.48;0.80;;;;;;;6.29;66.94;100326.69;4992905;28;20070;-48
2024/01/15 08:49:14;;;;;;;3.17;0.77;;;;;;;6.59;65.00;100336.81;4992205;28;20125;-44
2024/01/15 08:51:40;;;;;;;5.10;0.70;;;;;;;6.76;63.94;100330.31;4992124;28;20113;-50
2024/01/15 08:54:05;;;;;;;3.10;0.60;;;;;;;6.53;63.99;100345.34;4992161;28;20039;-45
2024/01/15 08:56:30;;;;;;;7.22;1.70;;;;;;;6.89;64.47;100353.00;4992354;28;20038;-46
2024/01/15 08:58:56;;;;;;;4.93;0.90;;;;;;;6.89;65.84;100365.09;4991994;28;20050;-48
2024/01/15 09:01:23;;;;;;;7.30;1.30;;;;;;;6.75;66.97;100377.78;4992265;28;20062;-46
2024/01/15 09:03:48;;;;;;;8.13;1.00;;;;;;;6.48;67.55;100366.81;4991996;28;20088;-50
2024/01/15 09:06:13;;;;;;;9.77;1.20;;;;;;;6.54;67.39;100356.59;4991277;28;20031;-46
2024/01/15 09:08:39;;;;;;;8.57;0.98;;;;;;;6.49;67.46;100360.78;4992096;28;20061;-48
2024/01/15 09:11:04;;;;;;;4.00;0.80;;;;;;;6.31;68.17;100357.81;4990288;28;20045;-46
2024/01/15 09:13:29;;;;;;;6.40;0.90;;;;;;;6.48;67.93;100364.22;4992272;28;20038;-45
2024/01/15 09:15:55;;;;;;;8.73;1.45;;;;;;;6.26;68.89;100354.25;4991163;28;20065;-46
2024/01/15 09:18:20;;;;;;;6.40;0.93;;;;;;;6.07;69.70;100358.13;4992250;28;20034;-47
2024/01/15 09:20:46;;;;;;;7.25;1.15;;;;;;;6.11;69.86;100366.00;4991952;28;20118;-48
2024/01/15 09:23:12;;;;;;;12.02;1.10;;;;;;;6.25;69.99;100349.91;4991393;28;20125;-46
2024/01/15 09:25:37;;;;;;;9.70;1.00;;;;;;;5.50;71.51;100379.09;4991765;28;20045;-50
2024/01/15 09:28:02;;;;;;;8.43;1.00;;;;;;;5.46;72.05;100361.78;4991561;28;20030;-46
2024/01/15 09:30:28;;;;;;;5.10;0.80;;;;;;;5.60;71.43;100373.34;4991748;28;20041;-45
2024/01/15 09:32:53;;;;;;;7.57;1.30;;;;;;;5.70;70.34;100366.69;4974325;28;20129;-50
2024/01/15 09:35:18;;;;;;;7.00;1.10;;;;;;;5.76;70.33;100376.31;4991587;28;20042;-44
2024/01/15 09:37:44;;;;;;;6.20;1.15;;;;;;;6.20;68.25;100370.50;4992241;28;20042;-47
2024/01/15 09:40:13;;;;;;;6.78;1.02;;;;;;;6.06;68.70;100370.19;4990918;28;20045;-45
2024/01/15 09:42:39;;;;;;;5.30;0.80;;;;;;;6.24;68.97;100361.97;4992948;28;20069;-47
2024/01/15 09:45:05;;;;;;;5.05;0.85;;;;;;;6.46;68.58;100363.34;4991604;28;20042;-45
2024/01/15 09:47:31;;;;;;;4.32;0.95;;;;;;;6.85;66.18;100356.38;4990329;28;20493;-47
2024/01/15 09:49:58;;;;;;;4.15;0.70;;;;;;;6.52;66.05;100353.09;4992119;28;20169;-45
2024/01/15 09:52:25;;;;;;;4.40;0.90;;;;;;;6.73;65.37;100343.19;4991465;28;20125;-43
2024/01/15 09:54:50;;;;;;;4.93;0.80;;;;;;;6.70;64.94;100343.13;4990640;28;20044;-47
2024/01/15 09:57:16;;;;;;;7.40;1.13;;;;;;;6.74;65.80;100352.69;4991188;28;20441;-45
2024/01/15 09:59:43;;;;;;;4.40;0.90;;;;;;;6.93;65.53;100361.72;4992251;28;20065;-45
2024/01/15 10:02:10;;;;;;;4.30;1.05;;;;;;;6.89;65.22;100365.09;4992784;28;20088;-45
2024/01/15 10:04:35;;;;;;;5.10;0.70;;;;;;;6.02;69.04;100370.09;4992675;28;20065;-45
2024/01/15 10:07:02;;;;;;;4.93;0.90;;;;;;;6.43;69.10;100366.72;4991919;28;20058;-44
2024/01/15 10:09:27;;;;;;;8.45;0.90;;;;;;;6.53;68.32;100368.66;4991136;28;20066;-46
2024/01/15 10:11:53;;;;;;;10.18;0.98;;;;;;;6.61;67.81;100371.41;4990940;28;20520;-45
2024/01/15 10:14:19;;;;;;;8.40;1.10;;;;;;;6.58;67.69;100378.25;4992139;28;20038;-48
2024/01/15 10:16:44;;;;;;;8.88;1.00;;;;;;;6.25;68.62;100387.03;4992612;28;20056;-44
2024/01/15 10:19:10;;;;;;;5.85;0.90;;;;;;;6.20;68.64;100387.75;4992891;28;20401;-44
2024/01/15 10:21:36;;;;;;;8.25;1.00;;;;;;;6.13;69.63;100389.31;4991971;28;20100;-49
2024/01/15 10:24:03;;;;;;;8.50;1.08;;;;;;;5.99;69.94;100394.16;4990639;28;20042;-46
2024/01/15 10:26:29;;;;;;;5.82;0.70;;;;;;;5.90;70.64;100390.50;4990656;28;20038;-45
2024/01/15 10:28:54;;;;;;;4.07;0.70;;;;;;;6.01;69.78;100383.88;4991032;28;20050;-45
2024/01/15 10:31:21;;;;;;;3.95;0.80;;;;;;;6.04;69.26;100378.75;4989318;28;20034;-45
2024/01/15 10:33:49;;;;;;;3.15;0.82;;;;;;;6.27;67.86;100377.59;4988803;28;20033;-44
2024/01/15 10:36:16;;;;;;;5.80;0.93;;;;;;;6.55;66.93;100378.19;4990182;28;20038;-46
2024/01/15 10:38:43;;;;;;;3.80;1.00;;;;;;;6.28;67.44;100366.38;4991125;28;20121;-47
2024/01/15 10:41:08;;;;;;;6.03;1.17;;;;;;;7.05;66.27;100364.53;4990374;28;20061;-48
2024/01/15 10:43:33;;;;;;;7.95;1.08;;;;;;;7.01;66.30;100365.34;4990801;28;20035;-44
2024/01/15 10:45:59;;;;;;;6.85;1.17;;;;;;;6.99;66.32;100367.03;4989761;28;20034;-44
2024/01/15 10:48:28;;;;;;;12.23;1.20;;;;;;;6.78;66.44;100377.81;4993930;28;20041;-50
2024/01/15 10:50:53;;;;;;;3.85;1.02;;;;;;;6.84;66.89;100393.50;4990871;28;20042;-46
2024/01/15 10:53:19;;;;;;;8.02;1.10;;;;;;;6.83;65.40;100385.72;4990840;28;20065;-47
2024/01/15 10:55:48;;;;;;;6.57;0.90;;;;;;;7.20;65.13;100389.88;4990427;28;20700;-46
2024/01/15 10:58:15;;;;;;;6.22;1.02;;;;;;;7.14;65.19;100385.44;4989955;28;20037;-45
2024/01/15 11:00:40;;;;;;;3.97;0.85;;;;;;;7.07;65.02;100374.94;4990779;28;20092;-45
2024/01/15 11:03:06;;;;;;;4.15;0.90;;;;;;;7.39;63.20;100386.78;4989800;28;20057;-48
2024/01/15 11:05:59;;;;;;;6.53;0.95;;;;;;;7.54;61.36;100379.28;4990204;28;20034;-49
2024/01/15 11:08:24;;;;;;;3.90;0.63;;;;;;;7.17;62.19;100392.41;4988522;28;20066;-49
2024/01/15 11:10:52;;;;;;;5.00;0.55;;;;;;;7.45;59.96;100375.66;4990518;28;20442;-44
2024/01/15 11:13:32;;;;;;;2.72;0.60;;;;;;;7.18;58.88;100384.69;4990034;28;20078;-45
2024/01/15 11:16:03;;;;;;;2.53;0.80;;;;;;;7.40;58.48;100388.53;4987954;28;20042;-47
2024/01/15 11:18:35;;;;;;;5.35;0.60;;;;;;;7.13;59.19;100375.94;4989052;28;20039;-47
2024/01/15 11:21:21;;;;;;;10.15;0.70;;;;;;;7.30;59.09;100382.31;4989509;28;20034;-48
2024/01/15 11:23:51;;;;;;;7.28;1.10;;;;;;;7.17;59.94;100374.28;4990297;28;20042;-50
2024/01/15 11:26:32;;;;;;;9.52;1.13;;;;;;;7.71;58.85;100385.63;4989094;28;20632;-50